Terminal Aerodrome Forecast
Issued by NWS Bismarck, ND

Home | Current Version | Previous Version | Text Only | Print | Product List | Glossary Off
Versions: 1 2 3 4 5 6 7 8 9 10 11 12 13 14 15 16 17 18 19 20 21 22 23

594
FTUS43 KBIS 212338
TAFBIS
TAF
KBIS 212338Z 2200/2224 32005KT P6SM SKC
     FM220100 VRB03KT P6SM SKC
     FM220900 14004KT P6SM BKN200
     FM221600 19007KT P6SM BKN100
     FM221800 25008KT P6SM FEW140
     FM222000 31013KT P6SM FEW250=

USA.gov is the U.S. government's official web portal to all federal, state and local government web resources and services.